Time;durP1;ratioP1;P1;durP2;ratioP2;P2;SDS_P1;SDS_P2;PMS_P1;PMS_P2;Temp;Humidity;BMP_temperature;BMP_pressure;BME280_temperature;BME280_humidity;BME280_pressure;Samples;Min_cycle;Max_cycle;Signal;HPM_P1;HPM_P2
2022/08/06 00:02:06;;;;;;;2.50;1.35;;;;;19.70;102448.00;;;;5047878;28;20207;-77
2022/08/06 00:04:34;;;;;;;3.20;1.20;;;;;19.60;102441.00;;;;5046996;28;20478;-77
2022/08/06 00:07:01;;;;;;;1.67;1.00;;;;;19.60;102442.00;;;;5047993;28;20196;-77
2022/08/06 00:09:30;;;;;;;1.95;1.10;;;;;19.60;102449.00;;;;5046748;28;20196;-77
2022/08/06 00:11:59;;;;;;;1.48;0.80;;;;;19.50;102452.00;;;;5036166;28;20234;-77
2022/08/06 00:14:27;;;;;;;2.53;0.90;;;;;19.50;102459.00;;;;5041972;28;20364;-77
2022/08/06 00:16:54;;;;;;;1.50;0.90;;;;;19.50;102450.00;;;;5043455;28;20569;-77
2022/08/06 00:19:22;;;;;;;2.50;1.00;;;;;19.40;102458.00;;;;5044381;28;20634;-77
2022/08/06 00:21:49;;;;;;;3.25;1.00;;;;;19.40;102453.00;;;;5032683;28;20581;-77
2022/08/06 00:24:17;;;;;;;2.05;1.27;;;;;19.40;102454.00;;;;5046926;28;20585;-76
2022/08/06 00:26:44;;;;;;;1.63;1.00;;;;;19.40;102451.00;;;;5047863;28;20199;-77
2022/08/06 00:29:13;;;;;;;2.60;1.08;;;;;19.40;102458.00;;;;5033169;28;20211;-77
2022/08/06 00:31:41;;;;;;;1.60;0.82;;;;;19.30;102457.00;;;;5032385;28;20226;-77
2022/08/06 00:34:08;;;;;;;1.20;0.88;;;;;19.30;102453.00;;;;5050516;28;20195;-77
2022/08/06 00:36:35;;;;;;;4.55;1.27;;;;;19.30;102459.00;;;;5051328;28;20195;-77
2022/08/06 00:39:06;;;;;;;1.88;0.80;;;;;19.30;102456.00;;;;5051092;28;20585;-77
2022/08/06 00:41:34;;;;;;;1.10;0.73;;;;;19.30;102465.00;;;;5050995;28;20216;-76
2022/08/06 00:44:02;;;;;;;2.17;1.00;;;;;19.20;102468.00;;;;5050117;28;20199;-77
2022/08/06 00:46:31;;;;;;;1.67;0.82;;;;;19.20;102474.00;;;;5033987;28;20675;-77
2022/08/06 00:48:58;;;;;;;1.35;0.70;;;;;19.20;102472.00;;;;5049436;28;20211;-77
2022/08/06 00:51:26;;;;;;;3.88;1.48;;;;;19.20;102478.00;;;;5050525;28;20195;-77
2022/08/06 00:53:53;;;;;;;2.47;0.80;;;;;19.20;102480.00;;;;5051209;28;20207;-77
2022/08/06 00:56:21;;;;;;;1.90;0.85;;;;;19.20;102485.00;;;;5051087;28;20508;-76
2022/08/06 00:58:48;;;;;;;2.13;1.10;;;;;19.10;102486.00;;;;5050768;28;20231;-76
2022/08/06 01:01:16;;;;;;;1.80;0.80;;;;;19.10;102480.00;;;;5051010;28;20231;-77
2022/08/06 01:03:45;;;;;;;1.20;0.90;;;;;19.10;102486.00;;;;5047348;28;20206;-76
2022/08/06 01:06:12;;;;;;;1.77;0.90;;;;;19.10;102487.00;;;;5051190;28;20226;-77
2022/08/06 01:08:39;;;;;;;1.45;0.98;;;;;19.10;102496.00;;;;5050611;28;20199;-77
2022/08/06 01:11:07;;;;;;;1.92;0.90;;;;;19.00;102494.00;;;;5050281;28;20191;-77
2022/08/06 01:13:34;;;;;;;2.33;1.00;;;;;19.00;102492.00;;;;5050072;28;20246;-77
2022/08/06 01:16:10;;;;;;;2.75;1.10;;;;;18.90;102496.00;;;;5050742;28;20203;-77
2022/08/06 01:18:45;;;;;;;1.75;0.65;;;;;19.00;102500.00;;;;5048185;28;20245;-77
2022/08/06 01:21:26;;;;;;;1.40;0.77;;;;;18.90;102500.00;;;;5041615;28;20687;-77
2022/08/06 01:24:12;;;;;;;1.92;0.90;;;;;18.90;102491.00;;;;5051160;28;20573;-77
2022/08/06 01:26:47;;;;;;;2.92;1.15;;;;;18.90;102504.00;;;;5050624;28;20199;-77
2022/08/06 01:29:22;;;;;;;1.52;1.17;;;;;18.90;102506.00;;;;5050265;28;20580;-76
2022/08/06 01:31:54;;;;;;;3.33;1.00;;;;;18.90;102504.00;;;;5050360;28;20234;-77
2022/08/06 01:34:28;;;;;;;1.42;1.33;;;;;18.90;102502.00;;;;5049745;28;20198;-77
2022/08/06 01:37:02;;;;;;;2.63;0.98;;;;;18.90;102504.00;;;;5047357;28;20685;-77
2022/08/06 01:39:33;;;;;;;2.67;0.65;;;;;18.90;102505.00;;;;5050288;28;20195;-76
2022/08/06 01:42:03;;;;;;;2.30;0.60;;;;;18.80;102506.00;;;;5050413;28;20549;-76
2022/08/06 01:44:35;;;;;;;1.02;0.70;;;;;18.80;102512.00;;;;5048678;28;20199;-77
2022/08/06 01:47:06;;;;;;;1.00;0.80;;;;;18.80;102512.00;;;;5049614;28;20192;-77
2022/08/06 01:49:37;;;;;;;0.93;0.80;;;;;18.80;102515.00;;;;5049746;28;20767;-77
2022/08/06 01:52:07;;;;;;;2.17;0.93;;;;;18.80;102519.00;;;;5049881;28;20230;-77
2022/08/06 01:54:37;;;;;;;1.08;0.63;;;;;18.80;102515.00;;;;5032656;28;20270;-76
2022/08/06 01:57:06;;;;;;;1.83;0.77;;;;;18.80;102516.00;;;;5040591;28;20732;-77
2022/08/06 01:59:38;;;;;;;1.45;0.70;;;;;18.80;102520.00;;;;5049101;28;20218;-77
2022/08/06 02:02:09;;;;;;;1.52;0.68;;;;;18.80;102512.00;;;;5048923;28;20226;-77
2022/08/06 02:04:41;;;;;;;1.33;0.80;;;;;18.70;102511.00;;;;5049811;28;20211;-77
2022/08/06 02:07:12;;;;;;;0.80;0.60;;;;;18.70;102505.00;;;;5049707;28;20192;-77
2022/08/06 02:09:44;;;;;;;2.33;0.98;;;;;18.70;102514.00;;;;5047077;28;20546;-77
2022/08/06 02:12:14;;;;;;;3.70;1.50;;;;;18.70;102515.00;;;;5033411;28;20219;-77
2022/08/06 02:14:48;;;;;;;2.22;0.90;;;;;18.60;102515.00;;;;5049910;28;20200;-77
2022/08/06 02:17:18;;;;;;;1.00;0.70;;;;;18.70;102521.00;;;;5049173;28;20215;-77
2022/08/06 02:19:47;;;;;;;2.67;0.73;;;;;18.70;102517.00;;;;5050756;28;20203;-77
2022/08/06 02:22:15;;;;;;;1.10;0.65;;;;;18.60;102520.00;;;;5048481;28;20203;-77
2022/08/06 02:24:44;;;;;;;2.72;1.00;;;;;18.60;102516.00;;;;5049930;28;20214;-76
2022/08/06 02:27:13;;;;;;;0.82;0.70;;;;;18.60;102520.00;;;;5047437;28;20684;-77
2022/08/06 02:29:45;;;;;;;1.75;0.80;;;;;18.60;102511.00;;;;5049669;28;20196;-76
2022/08/06 02:32:13;;;;;;;2.65;0.98;;;;;18.60;102520.00;;;;5049072;28;20219;-77
2022/08/06 02:34:41;;;;;;;1.67;1.10;;;;;18.60;102515.00;;;;5049268;28;20202;-77
2022/08/06 02:37:14;;;;;;;1.10;0.82;;;;;18.50;102514.00;;;;5048649;28;20195;-77
2022/08/06 02:39:46;;;;;;;1.38;0.70;;;;;18.50;102515.00;;;;5049041;28;20204;-74
2022/08/06 02:42:21;;;;;;;2.90;1.10;;;;;18.50;102518.00;;;;5048351;28;20203;-76
2022/08/06 02:44:55;;;;;;;1.17;0.70;;;;;18.50;102511.00;;;;5046663;28;20194;-77
2022/08/06 02:47:26;;;;;;;1.60;1.13;;;;;18.50;102514.00;;;;5047878;28;20195;-77
2022/08/06 02:49:57;;;;;;;2.88;0.88;;;;;18.50;102512.00;;;;5047779;28;20195;-76
2022/08/06 02:52:31;;;;;;;0.88;0.63;;;;;18.40;102513.00;;;;5048842;28;20219;-77
2022/08/06 02:55:06;;;;;;;1.48;0.80;;;;;18.40;102502.00;;;;5048921;28;20196;-76
2022/08/06 02:57:41;;;;;;;2.97;0.82;;;;;18.40;102509.00;;;;5047209;28;20616;-77
2022/08/06 03:00:11;;;;;;;1.35;0.80;;;;;18.40;102514.00;;;;5049239;28;20198;-77
2022/08/06 03:02:42;;;;;;;1.40;0.90;;;;;18.40;102509.00;;;;5036943;28;20204;-76
2022/08/06 03:05:14;;;;;;;1.83;0.73;;;;;18.40;102520.00;;;;5049283;28;20211;-77
2022/08/06 03:07:43;;;;;;;1.13;0.68;;;;;18.40;102520.00;;;;5049436;28;20196;-77
2022/08/06 03:10:11;;;;;;;0.85;0.70;;;;;18.40;102519.00;;;;5049015;28;20225;-76
2022/08/06 03:12:40;;;;;;;3.03;0.82;;;;;18.40;102527.00;;;;5048698;28;20211;-77
2022/08/06 03:15:11;;;;;;;2.72;0.73;;;;;18.30;102531.00;;;;5048478;28;20199;-76
2022/08/06 03:17:41;;;;;;;6.10;0.77;;;;;18.30;102523.00;;;;5045872;28;20200;-76
2022/08/06 03:20:10;;;;;;;1.70;0.88;;;;;18.30;102517.00;;;;5039710;28;20207;-77
2022/08/06 03:22:39;;;;;;;1.60;1.00;;;;;18.30;102523.00;;;;5048223;28;20241;-76
2022/08/06 03:25:08;;;;;;;3.75;0.73;;;;;18.30;102512.00;;;;5047784;28;20191;-77
2022/08/06 03:27:36;;;;;;;1.52;0.98;;;;;18.20;102520.00;;;;5044509;28;20200;-77
2022/08/06 03:30:05;;;;;;;1.92;1.00;;;;;18.20;102528.00;;;;5044344;28;20568;-77
2022/08/06 03:32:34;;;;;;;1.33;0.88;;;;;18.20;102525.00;;;;5031078;28;20215;-77
2022/08/06 03:35:03;;;;;;;1.42;1.00;;;;;18.20;102536.00;;;;5043469;28;20205;-76
2022/08/06 03:37:33;;;;;;;3.17;0.90;;;;;18.20;102537.00;;;;5042665;28;20191;-77
2022/08/06 03:40:01;;;;;;;1.48;1.08;;;;;18.20;102535.00;;;;5047409;28;20195;-76
2022/08/06 03:42:29;;;;;;;1.38;0.88;;;;;18.20;102542.00;;;;5047834;28;20676;-77
2022/08/06 03:44:56;;;;;;;2.33;0.70;;;;;18.10;102544.00;;;;5047863;28;20200;-77
2022/08/06 03:47:32;;;;;;;2.67;1.05;;;;;18.10;102537.00;;;;5047800;28;20238;-76
2022/08/06 03:50:06;;;;;;;1.88;0.80;;;;;18.10;102543.00;;;;5048199;28;20682;-77
2022/08/06 03:52:40;;;;;;;1.25;0.63;;;;;18.00;102536.00;;;;5046222;28;20203;-76
2022/08/06 03:55:09;;;;;;;2.65;0.90;;;;;18.10;102541.00;;;;5048148;28;20198;-77
2022/08/06 03:57:41;;;;;;;2.38;0.55;;;;;18.00;102538.00;;;;5048233;28;20223;-77
2022/08/06 04:00:11;;;;;;;1.00;0.60;;;;;18.00;102539.00;;;;5048611;28;20188;-77
2022/08/06 04:02:40;;;;;;;2.95;0.77;;;;;18.00;102539.00;;;;5048119;28;20207;-77
2022/08/06 04:05:12;;;;;;;2.25;0.75;;;;;18.00;102546.00;;;;5048434;28;20200;-77
2022/08/06 04:07:40;;;;;;;1.48;0.60;;;;;18.00;102548.00;;;;5046542;28;20195;-76
2022/08/06 04:10:09;;;;;;;1.67;0.70;;;;;18.00;102558.00;;;;5034335;28;20213;-77
2022/08/06 04:12:37;;;;;;;1.95;0.90;;;;;18.00;102549.00;;;;5035121;28;20203;-77
2022/08/06 04:15:06;;;;;;;1.35;0.57;;;;;18.00;102553.00;;;;5044394;28;20199;-76
2022/08/06 04:17:36;;;;;;;2.65;0.77;;;;;18.00;102555.00;;;;5047567;28;20217;-77
2022/08/06 04:20:05;;;;;;;2.67;0.60;;;;;18.00;102551.00;;;;5047378;28;20199;-77
2022/08/06 04:22:34;;;;;;;1.25;0.60;;;;;17.90;102550.00;;;;5046895;28;20716;-77
2022/08/06 04:25:01;;;;;;;1.98;0.63;;;;;17.90;102552.00;;;;5048157;28;20199;-76
2022/08/06 04:27:29;;;;;;;1.52;0.68;;;;;17.90;102555.00;;;;5037010;28;20210;-77
2022/08/06 04:29:59;;;;;;;3.75;1.17;;;;;17.90;102557.00;;;;5047481;28;20661;-76
2022/08/06 04:32:27;;;;;;;1.15;0.60;;;;;17.90;102558.00;;;;5047278;28;20199;-77
2022/08/06 04:34:56;;;;;;;1.17;0.60;;;;;17.90;102559.00;;;;5046607;28;20204;-76
2022/08/06 04:37:24;;;;;;;2.45;0.80;;;;;17.90;102563.00;;;;5046757;28;20196;-77
2022/08/06 04:39:52;;;;;;;1.45;0.98;;;;;17.90;102563.00;;;;5047115;28;20210;-77
2022/08/06 04:42:20;;;;;;;1.73;0.85;;;;;17.90;102568.00;;;;5046738;28;20586;-76
2022/08/06 04:44:48;;;;;;;1.73;0.90;;;;;17.90;102571.00;;;;5047142;28;20207;-76
2022/08/06 04:47:17;;;;;;;1.70;1.38;;;;;17.90;102567.00;;;;5046456;28;20200;-76
2022/08/06 04:49:44;;;;;;;1.27;0.80;;;;;18.00;102572.00;;;;5047285;28;20203;-76
2022/08/06 04:52:21;;;;;;;1.02;0.63;;;;;17.90;102576.00;;;;5047364;28;20566;-77
2022/08/06 04:54:49;;;;;;;0.63;0.60;;;;;18.00;102576.00;;;;5046827;28;20215;-77
2022/08/06 04:57:17;;;;;;;0.77;0.63;;;;;18.00;102587.00;;;;5047091;28;20220;-76
2022/08/06 04:59:45;;;;;;;3.15;0.90;;;;;18.00;102586.00;;;;5043815;28;20203;-77
2022/08/06 05:02:12;;;;;;;4.25;0.90;;;;;18.00;102585.00;;;;5045280;28;20215;-77
2022/08/06 05:04:41;;;;;;;3.60;1.02;;;;;18.10;102586.00;;;;5047416;28;20187;-76
2022/08/06 05:07:14;;;;;;;1.45;1.00;;;;;18.00;102584.00;;;;5047571;28;20210;-77
2022/08/06 05:09:42;;;;;;;2.78;0.88;;;;;18.10;102596.00;;;;5047662;28;20196;-76
2022/08/06 05:12:16;;;;;;;2.38;0.65;;;;;18.10;102597.00;;;;5046351;28;20207;-76
2022/08/06 05:14:52;;;;;;;3.67;1.00;;;;;18.20;102598.00;;;;5044379;28;20268;-76
2022/08/06 05:17:24;;;;;;;1.50;0.82;;;;;18.20;102596.00;;;;5043989;28;20278;-77
2022/08/06 05:19:56;;;;;;;0.93;0.63;;;;;18.30;102606.00;;;;5050056;28;20266;-77
2022/08/06 05:22:24;;;;;;;0.80;0.73;;;;;18.30;102613.00;;;;5050029;28;20195;-77
2022/08/06 05:24:52;;;;;;;1.05;0.77;;;;;18.40;102608.00;;;;5050851;28;20211;-77
2022/08/06 05:27:20;;;;;;;2.65;0.85;;;;;18.40;102611.00;;;;5049906;28;20195;-77
2022/08/06 05:29:49;;;;;;;1.33;0.60;;;;;18.50;102608.00;;;;5050865;28;20203;-77
2022/08/06 05:32:17;;;;;;;2.20;0.68;;;;;18.50;102611.00;;;;5049783;28;20188;-77
2022/08/06 05:34:47;;;;;;;1.20;0.80;;;;;18.60;102608.00;;;;5049658;28;20255;-77
2022/08/06 05:37:14;;;;;;;1.17;0.52;;;;;18.60;102615.00;;;;5050123;28;20195;-77
2022/08/06 05:39:42;;;;;;;4.47;1.00;;;;;18.70;102615.00;;;;5049553;28;20618;-77
2022/08/06 05:42:09;;;;;;;1.27;0.80;;;;;18.80;102619.00;;;;5050618;28;20203;-77
2022/08/06 05:44:36;;;;;;;2.60;0.90;;;;;18.80;102622.00;;;;5050429;28;20212;-77
2022/08/06 05:47:10;;;;;;;1.90;0.75;;;;;18.90;102633.00;;;;5049790;28;20191;-77
2022/08/06 05:49:42;;;;;;;3.45;1.00;;;;;19.00;102633.00;;;;5050035;28;20265;-77
2022/08/06 05:52:13;;;;;;;2.17;0.80;;;;;19.00;102631.00;;;;5039075;28;20192;-77
2022/08/06 05:54:47;;;;;;;2.22;0.73;;;;;19.10;102634.00;;;;5050510;28;20223;-77
2022/08/06 05:57:20;;;;;;;1.58;0.82;;;;;19.20;102633.00;;;;5049905;28;20222;-77
2022/08/06 05:59:54;;;;;;;1.10;0.70;;;;;19.30;102644.00;;;;5050251;28;20206;-77
2022/08/06 06:02:25;;;;;;;2.78;0.70;;;;;19.40;102641.00;;;;5049970;28;20207;-77
2022/08/06 06:04:53;;;;;;;0.77;0.65;;;;;19.40;102645.00;;;;5050777;28;20207;-77
2022/08/06 06:07:21;;;;;;;1.30;1.20;;;;;19.50;102651.00;;;;5049996;28;20198;-77
2022/08/06 06:09:49;;;;;;;2.35;1.00;;;;;19.60;102643.00;;;;5049692;28;20235;-77
2022/08/06 06:12:17;;;;;;;1.00;0.73;;;;;19.70;102649.00;;;;5050441;28;20341;-77
2022/08/06 06:14:47;;;;;;;1.40;0.80;;;;;19.80;102654.00;;;;5049642;28;20277;-77
2022/08/06 06:17:31;;;;;;;1.70;0.80;;;;;19.80;102663.00;;;;5049225;28;20204;-77
2022/08/06 06:20:05;;;;;;;1.48;0.80;;;;;20.00;102667.00;;;;5050175;28;20401;-77
2022/08/06 06:22:39;;;;;;;2.70;0.85;;;;;20.10;102667.00;;;;5048969;28;20210;-77
2022/08/06 06:25:11;;;;;;;1.25;0.68;;;;;20.20;102666.00;;;;5042821;28;20266;-77
2022/08/06 06:27:47;;;;;;;1.63;0.90;;;;;20.20;102665.00;;;;5042475;28;20199;-77
2022/08/06 06:30:20;;;;;;;1.52;1.10;;;;;20.30;102671.00;;;;5048503;28;20199;-77
2022/08/06 06:32:55;;;;;;;1.55;0.95;;;;;20.50;102671.00;;;;5048861;28;20261;-77
2022/08/06 06:35:30;;;;;;;2.53;0.90;;;;;20.60;102667.00;;;;5049070;28;20227;-77
2022/08/06 06:38:23;;;;;;;2.40;0.98;;;;;20.70;102667.00;;;;5049172;28;20202;-77
2022/08/06 06:40:58;;;;;;;1.65;0.93;;;;;20.80;102665.00;;;;5028697;28;20607;-77
2022/08/06 06:43:34;;;;;;;3.47;0.77;;;;;20.90;102649.00;;;;5041997;28;20669;-77
2022/08/06 06:46:07;;;;;;;3.50;0.80;;;;;21.10;102665.00;;;;5049126;28;20206;-77
2022/08/06 06:48:40;;;;;;;1.40;0.65;;;;;21.20;102665.00;;;;5049201;28;20206;-77
2022/08/06 06:51:10;;;;;;;1.55;0.60;;;;;21.30;102664.00;;;;5048888;28;20680;-77
2022/08/06 06:53:41;;;;;;;0.70;0.60;;;;;21.40;102664.00;;;;5048075;28;20601;-77
2022/08/06 06:56:11;;;;;;;1.30;0.80;;;;;21.60;102671.00;;;;5048594;28;20195;-77
2022/08/06 06:58:42;;;;;;;0.90;0.40;;;;;21.70;102663.00;;;;5043103;28;20239;-77
2022/08/06 07:01:12;;;;;;;3.38;0.90;;;;;21.80;102672.00;;;;5049352;28;20223;-77
2022/08/06 07:03:43;;;;;;;1.00;0.75;;;;;21.90;102676.00;;;;5048108;28;20673;-77
2022/08/06 07:06:12;;;;;;;2.08;0.55;;;;;22.00;102678.00;;;;5048978;28;20211;-77
2022/08/06 07:08:44;;;;;;;3.22;0.52;;;;;22.20;102674.00;;;;5049089;28;20198;-78
2022/08/06 07:11:16;;;;;;;1.40;0.65;;;;;22.30;102678.00;;;;5049511;28;20290;-78
2022/08/06 07:13:44;;;;;;;1.00;0.30;;;;;22.40;102681.00;;;;5048461;28;20219;-77
2022/08/06 07:16:14;;;;;;;1.30;0.50;;;;;22.50;102688.00;;;;5047639;28;20192;-78
2022/08/06 07:18:44;;;;;;;1.23;0.50;;;;;22.60;102685.00;;;;5048480;28;20221;-78
2022/08/06 07:21:14;;;;;;;2.22;0.32;;;;;22.70;102685.00;;;;5048993;28;20204;-77
2022/08/06 07:23:42;;;;;;;1.90;0.50;;;;;22.90;102688.00;;;;5049279;28;20195;-78
2022/08/06 07:26:11;;;;;;;0.40;0.40;;;;;23.00;102694.00;;;;5048722;28;20661;-78
2022/08/06 07:28:38;;;;;;;3.53;0.40;;;;;23.10;102697.00;;;;5047830;28;20199;-78
2022/08/06 07:31:07;;;;;;;1.98;0.45;;;;;23.20;102685.00;;;;5049165;28;20264;-78
2022/08/06 07:33:36;;;;;;;0.65;0.30;;;;;23.30;102693.00;;;;5038891;28;20620;-78
2022/08/06 07:36:05;;;;;;;1.02;0.30;;;;;23.40;102697.00;;;;5046488;28;20713;-77
2022/08/06 07:38:35;;;;;;;2.10;0.40;;;;;23.50;102694.00;;;;5033971;28;20218;-78
2022/08/06 07:41:05;;;;;;;1.42;0.22;;;;;23.60;102698.00;;;;5047858;28;20693;-78
2022/08/06 07:43:36;;;;;;;1.33;0.40;;;;;23.80;102698.00;;;;5047948;28;20200;-78
2022/08/06 07:46:06;;;;;;;2.42;0.38;;;;;23.80;102696.00;;;;5048547;28;20191;-78
2022/08/06 07:48:36;;;;;;;0.82;0.30;;;;;23.90;102692.00;;;;5048037;28;20783;-78
2022/08/06 07:51:06;;;;;;;1.23;0.38;;;;;24.00;102694.00;;;;5047237;28;20192;-78
2022/08/06 07:53:35;;;;;;;0.73;0.20;;;;;24.10;102697.00;;;;5047778;28;20596;-77
2022/08/06 07:56:04;;;;;;;1.25;0.38;;;;;24.20;102697.00;;;;5049160;28;20231;-78
2022/08/06 07:58:34;;;;;;;0.68;0.30;;;;;24.30;102700.00;;;;5047928;28;20231;-77
2022/08/06 08:01:02;;;;;;;1.13;0.30;;;;;24.40;102699.00;;;;5047673;28;20226;-77
2022/08/06 08:06:21;;;;;;;0.63;0.35;;;;;24.70;102697.00;;;;5047903;28;20321;-78
2022/08/06 08:08:51;;;;;;;1.15;0.28;;;;;24.80;102692.00;;;;5047502;28;20749;-78
2022/08/06 08:11:20;;;;;;;2.10;0.20;;;;;24.90;102701.00;;;;5047949;28;20203;-78
2022/08/06 08:13:47;;;;;;;1.27;0.38;;;;;25.00;102710.00;;;;5047508;28;20235;-78
2022/08/06 08:16:16;;;;;;;0.65;0.40;;;;;25.00;102709.00;;;;5048178;28;20196;-78
2022/08/06 08:18:44;;;;;;;2.00;0.35;;;;;25.10;102708.00;;;;5047824;28;20590;-80
2022/08/06 08:21:13;;;;;;;1.92;0.30;;;;;25.30;102710.00;;;;5047548;28;20204;-76
2022/08/06 08:23:44;;;;;;;0.55;0.30;;;;;25.40;102710.00;;;;5044948;28;20197;-77
2022/08/06 08:26:11;;;;;;;0.95;0.40;;;;;25.50;102714.00;;;;5034454;28;20207;-76
2022/08/06 08:28:38;;;;;;;1.45;0.57;;;;;25.60;102711.00;;;;5047911;28;20192;-77
2022/08/06 08:31:07;;;;;;;2.55;0.20;;;;;25.80;102709.00;;;;5048105;28;20214;-76
2022/08/06 08:33:35;;;;;;;1.63;0.30;;;;;25.90;102717.00;;;;5047498;28;20241;-77
2022/08/06 08:36:02;;;;;;;1.90;0.10;;;;;26.00;102719.00;;;;5047280;28;20234;-76
2022/08/06 08:38:31;;;;;;;0.50;0.30;;;;;26.00;102720.00;;;;5048083;28;20199;-76
2022/08/06 08:41:03;;;;;;;0.40;0.22;;;;;26.00;102717.00;;;;5043018;28;20244;-77
2022/08/06 08:43:35;;;;;;;0.70;0.25;;;;;26.10;102717.00;;;;5046516;28;20674;-77
2022/08/06 08:46:03;;;;;;;1.88;0.60;;;;;26.20;102712.00;;;;5047901;28;20568;-77
2022/08/06 08:48:32;;;;;;;1.25;0.40;;;;;26.30;102722.00;;;;5046293;28;20187;-77
2022/08/06 08:51:00;;;;;;;0.93;0.50;;;;;26.50;102717.00;;;;5048027;28;20192;-77
2022/08/06 08:53:37;;;;;;;0.73;0.22;;;;;26.60;102717.00;;;;5049532;28;20199;-77
2022/08/06 08:56:07;;;;;;;2.35;0.40;;;;;26.70;102713.00;;;;5051384;28;20227;-77
2022/08/06 08:58:37;;;;;;;1.15;0.40;;;;;26.70;102726.00;;;;5042163;28;20228;-77
2022/08/06 09:01:08;;;;;;;1.00;0.40;;;;;26.70;102723.00;;;;5051552;28;20246;-78
2022/08/06 09:03:36;;;;;;;0.45;0.25;;;;;26.70;102719.00;;;;5051245;28;20241;-77
2022/08/06 09:06:04;;;;;;;0.50;0.20;;;;;26.70;102720.00;;;;5051965;28;20195;-77
2022/08/06 09:08:32;;;;;;;0.25;0.10;;;;;26.70;102721.00;;;;5050527;28;20192;-77
2022/08/06 09:11:00;;;;;;;0.60;0.20;;;;;26.70;102727.00;;;;5051642;28;20498;-77
2022/08/06 09:13:30;;;;;;;1.73;0.22;;;;;26.80;102720.00;;;;5050910;28;20200;-77
2022/08/06 09:15:57;;;;;;;0.88;0.30;;;;;27.00;102730.00;;;;5042377;28;20215;-77
2022/08/06 09:18:26;;;;;;;0.85;0.30;;;;;27.10;102722.00;;;;5050293;28;20673;-77
2022/08/06 09:20:54;;;;;;;2.20;0.60;;;;;27.20;102727.00;;;;5051399;28;20195;-77
2022/08/06 09:23:21;;;;;;;2.30;0.43;;;;;27.20;102721.00;;;;5050571;28;20204;-77
2022/08/06 09:25:50;;;;;;;1.27;0.38;;;;;27.20;102736.00;;;;5050236;28;20199;-78
2022/08/06 09:28:35;;;;;;;0.70;0.40;;;;;27.00;102745.00;;;;5051072;28;20203;-78
2022/08/06 09:31:05;;;;;;;0.68;0.30;;;;;27.00;102741.00;;;;5050877;28;20702;-78
2022/08/06 09:33:34;;;;;;;0.68;0.35;;;;;26.90;102744.00;;;;5033300;28;20204;-78
2022/08/06 09:36:04;;;;;;;0.47;0.20;;;;;26.80;102743.00;;;;5044609;28;20306;-77
2022/08/06 09:38:32;;;;;;;0.82;0.40;;;;;26.70;102742.00;;;;5050011;28;20666;-77
2022/08/06 09:41:10;;;;;;;0.65;0.45;;;;;26.50;102741.00;;;;5040040;28;20219;-77
2022/08/06 09:43:42;;;;;;;2.50;0.22;;;;;26.50;102745.00;;;;5050199;28;20202;-77
2022/08/06 09:46:10;;;;;;;0.47;0.30;;;;;26.60;102740.00;;;;5050362;28;20195;-78
2022/08/06 09:48:37;;;;;;;1.40;0.10;;;;;26.60;102731.00;;;;5048686;28;20192;-78
2022/08/06 09:51:04;;;;;;;1.10;0.20;;;;;26.70;102725.00;;;;5041317;28;20200;-77
2022/08/06 09:53:32;;;;;;;1.35;0.52;;;;;26.90;102727.00;;;;5049668;28;20216;-77
2022/08/06 09:55:59;;;;;;;0.50;0.30;;;;;27.10;102726.00;;;;5049303;28;20223;-78
2022/08/06 09:58:35;;;;;;;1.55;0.57;;;;;27.20;102721.00;;;;5049324;28;20231;-78
2022/08/06 10:01:17;;;;;;;1.10;0.17;;;;;27.20;102721.00;;;;5049033;28;20249;-78
2022/08/06 10:03:45;;;;;;;0.77;0.35;;;;;27.40;102725.00;;;;5048781;28;20195;-78
2022/08/06 10:06:14;;;;;;;0.55;0.38;;;;;27.40;102729.00;;;;5043469;28;20204;-78
2022/08/06 10:08:43;;;;;;;0.63;0.30;;;;;27.40;102733.00;;;;5030254;28;20564;-78
2022/08/06 10:11:10;;;;;;;0.57;0.20;;;;;27.40;102729.00;;;;5044241;28;20246;-78
2022/08/06 10:13:38;;;;;;;1.23;0.30;;;;;27.40;102731.00;;;;5048508;28;20654;-78
2022/08/06 10:16:18;;;;;;;0.30;0.22;;;;;27.20;102721.00;;;;5049764;28;20223;-78
2022/08/06 10:18:47;;;;;;;3.03;0.25;;;;;27.30;102721.00;;;;5050085;28;20212;-77
2022/08/06 10:21:17;;;;;;;0.30;0.20;;;;;27.30;102723.00;;;;5048961;28;20200;-78
2022/08/06 10:23:49;;;;;;;1.02;0.17;;;;;27.30;102727.00;;;;5038464;28;20719;-77
2022/08/06 10:26:19;;;;;;;0.63;0.10;;;;;27.40;102722.00;;;;5047038;28;20681;-77
2022/08/06 10:28:49;;;;;;;0.17;0.10;;;;;27.50;102724.00;;;;5049283;28;20196;-77
2022/08/06 10:31:19;;;;;;;0.30;0.20;;;;;27.70;102725.00;;;;5048937;28;20195;-77
2022/08/06 10:33:50;;;;;;;0.28;0.10;;;;;27.80;102731.00;;;;5049257;28;20215;-77
2022/08/06 10:36:23;;;;;;;0.30;0.10;;;;;27.90;102731.00;;;;5048794;28;20223;-78
2022/08/06 10:38:52;;;;;;;0.30;0.20;;;;;28.10;102729.00;;;;5049439;28;20203;-78
2022/08/06 10:41:19;;;;;;;0.88;0.20;;;;;28.30;102731.00;;;;5041124;28;20223;-78
2022/08/06 10:43:47;;;;;;;0.30;0.30;;;;;28.40;102722.00;;;;5049238;28;20689;-78
2022/08/06 10:46:15;;;;;;;3.03;0.35;;;;;28.50;102723.00;;;;5048405;28;20215;-78
2022/08/06 10:48:45;;;;;;;0.43;0.20;;;;;28.60;102723.00;;;;5048628;28;20653;-77
2022/08/06 10:51:14;;;;;;;1.10;0.40;;;;;28.80;102716.00;;;;5048663;28;20246;-78
2022/08/06 10:53:45;;;;;;;0.65;0.40;;;;;28.90;102716.00;;;;5049347;28;20195;-78
2022/08/06 10:56:14;;;;;;;0.38;0.25;;;;;29.00;102714.00;;;;5048543;28;20270;-78
2022/08/06 10:58:41;;;;;;;0.68;0.10;;;;;29.10;102711.00;;;;5029925;28;20224;-78
2022/08/06 11:01:10;;;;;;;0.03;0.00;;;;;29.10;102713.00;;;;5044563;28;20219;-78
2022/08/06 11:03:52;;;;;;;2.75;0.35;;;;;29.20;102710.00;;;;5048571;28;20591;-78
2022/08/06 11:06:41;;;;;;;0.68;0.20;;;;;29.20;102712.00;;;;5048013;28;20674;-77
2022/08/06 11:09:25;;;;;;;0.20;0.20;;;;;29.20;102722.00;;;;5037984;28;20200;-78
2022/08/06 11:12:13;;;;;;;1.63;0.10;;;;;29.20;102713.00;;;;5028834;28;20192;-78
2022/08/06 11:14:41;;;;;;;0.82;0.20;;;;;29.30;102717.00;;;;5032087;28;20195;-78
2022/08/06 11:17:09;;;;;;;0.13;0.10;;;;;29.20;102725.00;;;;5047676;28;20196;-78
2022/08/06 11:19:45;;;;;;;0.43;0.25;;;;;29.00;102717.00;;;;5047840;28;20200;-78
2022/08/06 11:22:35;;;;;;;0.60;0.30;;;;;28.80;102710.00;;;;5048754;28;20199;-78
2022/08/06 11:25:04;;;;;;;0.50;0.25;;;;;28.90;102716.00;;;;5047812;28;20207;-78
2022/08/06 11:27:51;;;;;;;0.90;0.20;;;;;28.60;102714.00;;;;5047538;28;20688;-78
2022/08/06 11:30:20;;;;;;;0.15;0.15;;;;;28.70;102714.00;;;;5048361;28;20188;-78
2022/08/06 11:32:49;;;;;;;0.65;0.20;;;;;28.60;102716.00;;;;5047656;28;20199;-77
2022/08/06 11:35:48;;;;;;;3.33;0.40;;;;;28.40;102709.00;;;;5047215;28;20230;-77
2022/08/06 11:38:16;;;;;;;0.40;0.32;;;;;28.60;102718.00;;;;4994732;28;20945;-78
2022/08/06 11:40:58;;;;;;;0.43;0.25;;;;;28.50;102715.00;;;;5046687;28;20207;-77
2022/08/06 11:43:48;;;;;;;0.30;0.30;;;;;28.50;102710.00;;;;5048039;28;20206;-78
2022/08/06 11:46:20;;;;;;;0.35;0.13;;;;;28.60;102709.00;;;;5047418;28;20589;-78
2022/08/06 11:49:18;;;;;;;0.50;0.40;;;;;28.50;102706.00;;;;5036478;28;20204;-78
2022/08/06 11:51:48;;;;;;;1.98;0.20;;;;;28.70;102707.00;;;;5046646;28;20576;-78
2022/08/06 11:54:17;;;;;;;0.30;0.15;;;;;28.80;102705.00;;;;5047441;28;20192;-78
2022/08/06 11:57:25;;;;;;;0.15;0.15;;;;;28.70;102704.00;;;;5047570;28;20685;-78
2022/08/06 12:00:14;;;;;;;0.35;0.30;;;;;28.80;102712.00;;;;5044386;28;20210;-77
2022/08/06 12:02:56;;;;;;;0.10;0.10;;;;;28.90;102696.00;;;;5026927;28;20252;-78
2022/08/06 12:05:40;;;;;;;0.32;0.22;;;;;28.90;102699.00;;;;5030338;28;20204;-78
2022/08/06 12:08:23;;;;;;;0.98;0.20;;;;;29.00;102707.00;;;;5044310;28;20218;-78
2022/08/06 12:11:25;;;;;;;0.70;0.30;;;;;29.00;102702.00;;;;5033316;28;20191;-78
2022/08/06 12:13:53;;;;;;;0.38;0.20;;;;;29.10;102701.00;;;;5046836;28;20191;-77
2022/08/06 12:16:34;;;;;;;1.75;0.20;;;;;29.10;102701.00;;;;5046580;28;20227;-78
2022/08/06 12:19:04;;;;;;;0.43;0.25;;;;;29.20;102691.00;;;;5047571;28;20195;-78
2022/08/06 12:21:31;;;;;;;0.85;0.30;;;;;29.30;102690.00;;;;5046245;28;20960;-78
2022/08/06 12:24:01;;;;;;;0.70;0.20;;;;;29.30;102696.00;;;;5044113;28;20689;-77
2022/08/06 12:26:33;;;;;;;0.93;0.20;;;;;29.30;102688.00;;;;5046969;28;20269;-78
2022/08/06 12:29:04;;;;;;;1.27;0.40;;;;;29.30;102688.00;;;;5038545;28;20675;-78
2022/08/06 12:31:37;;;;;;;4.88;0.35;;;;;29.30;102690.00;;;;5051512;28;20196;-78